createdAt,value
2022-12-11T00:00:48.291Z,42.77
2022-12-11T00:03:17.080Z,41.40
2022-12-11T00:05:44.900Z,42.61
2022-12-11T00:08:12.538Z,42.78
2022-12-11T00:10:39.273Z,41.83
2022-12-11T00:13:05.806Z,42.63
2022-12-11T00:15:32.441Z,41.10
2022-12-11T00:17:59.007Z,39.66
2022-12-11T00:20:25.613Z,39.77
2022-12-11T00:22:52.129Z,39.59
2022-12-11T00:25:18.666Z,40.93
2022-12-11T00:27:46.149Z,42.09
2022-12-11T00:30:13.009Z,41.99
2022-12-11T00:32:39.599Z,41.60
2022-12-11T00:35:06.192Z,41.46
2022-12-11T00:37:32.792Z,41.51
2022-12-11T00:39:59.407Z,42.86
2022-12-11T00:42:26.100Z,43.29
2022-12-11T00:44:53.706Z,42.11
2022-12-11T00:47:20.238Z,42.67
2022-12-11T00:49:49.972Z,42.73
2022-12-11T00:52:17.970Z,42.27
2022-12-11T00:54:45.088Z,41.98
2022-12-11T00:57:11.706Z,42.68
2022-12-11T00:59:38.383Z,42.81
2022-12-11T01:02:04.879Z,43.75
2022-12-11T01:04:31.516Z,42.86
2022-12-11T01:06:58.097Z,42.85
2022-12-11T01:09:43.433Z,43.51
2022-12-11T01:12:10.080Z,43.95
2022-12-11T01:14:36.935Z,43.73
2022-12-11T01:17:04.218Z,44.32
2022-12-11T01:19:31.033Z,43.96
2022-12-11T01:21:57.754Z,44.56
2022-12-11T01:24:24.416Z,45.12
2022-12-11T01:26:51.175Z,46.01
2022-12-11T01:29:17.687Z,45.73
2022-12-11T01:31:44.280Z,45.52
2022-12-11T01:34:10.852Z,46.12
2022-12-11T01:36:37.364Z,45.66
2022-12-11T01:39:04.046Z,45.75
2022-12-11T01:41:30.740Z,47.05
2022-12-11T01:44:08.540Z,45.63
2022-12-11T01:46:36.312Z,46.25
2022-12-11T01:49:06.133Z,46.03
2022-12-11T01:51:37.551Z,46.54
2022-12-11T01:54:08.033Z,45.62
2022-12-11T01:56:36.521Z,46.25
2022-12-11T01:59:07.384Z,45.36
2022-12-11T02:01:40.371Z,45.59
2022-12-11T02:04:08.396Z,44.06
2022-12-11T02:06:34.886Z,43.56
2022-12-11T02:09:02.898Z,43.18
2022-12-11T02:11:39.860Z,42.79
2022-12-11T02:14:13.446Z,43.38
2022-12-11T02:16:40.008Z,41.73
2022-12-11T02:19:18.942Z,41.85
2022-12-11T02:21:50.361Z,41.83
2022-12-11T02:24:25.885Z,40.57
2022-12-11T02:27:03.381Z,39.08
2022-12-11T02:29:35.567Z,38.95
2022-12-11T02:32:10.884Z,38.64
2022-12-11T02:34:44.076Z,38.42
2022-12-11T02:37:18.930Z,37.88
2022-12-11T02:39:47.803Z,37.37
2022-12-11T02:42:16.505Z,38.14
2022-12-11T02:44:45.275Z,38.90
2022-12-11T02:47:15.456Z,38.12
2022-12-11T02:49:44.790Z,37.33
2022-12-11T02:52:13.910Z,37.40
2022-12-11T02:54:44.450Z,36.85
2022-12-11T02:57:23.686Z,37.28
2022-12-11T02:59:50.280Z,38.10
2022-12-11T03:02:18.875Z,36.70
2022-12-11T03:04:46.523Z,36.68
2022-12-11T03:07:20.130Z,36.66
2022-12-11T03:09:47.638Z,36.78
2022-12-11T03:12:18.238Z,36.59
2022-12-11T03:14:45.503Z,34.96
2022-12-11T03:17:12.129Z,34.52
2022-12-11T03:19:41.853Z,33.95
2022-12-11T03:22:27.018Z,33.90
2022-12-11T03:25:01.233Z,33.28
2022-12-11T03:27:37.248Z,32.60
2022-12-11T03:30:09.316Z,32.40
2022-12-11T03:32:42.906Z,32.11
2022-12-11T03:35:18.780Z,31.37
2022-12-11T03:37:48.095Z,31.98
2022-12-11T03:40:17.389Z,30.38
2022-12-11T03:42:46.187Z,31.00
2022-12-11T03:45:14.399Z,30.11
2022-12-11T03:47:43.321Z,29.98
2022-12-11T03:50:12.458Z,28.83
2022-12-11T03:52:45.749Z,28.27
2022-12-11T03:55:14.519Z,29.27
2022-12-11T03:57:41.050Z,27.84
2022-12-11T04:00:09.951Z,27.71
2022-12-11T04:02:36.569Z,27.72
2022-12-11T04:05:03.422Z,27.62
2022-12-11T04:07:31.271Z,27.12
2022-12-11T04:09:57.828Z,27.83
2022-12-11T04:12:24.330Z,28.41
2022-12-11T04:15:02.973Z,27.70
2022-12-11T04:17:49.684Z,27.89
2022-12-11T04:20:35.848Z,27.05
2022-12-11T04:23:39.378Z,27.80
2022-12-11T04:26:07.492Z,27.73
2022-12-11T04:28:34.389Z,28.23
2022-12-11T04:31:01.724Z,29.04
2022-12-11T04:33:28.361Z,29.53
2022-12-11T04:35:57.357Z,29.31
2022-12-11T04:38:24.325Z,29.44
2022-12-11T04:40:57.493Z,30.21
2022-12-11T04:43:24.026Z,29.27
2022-12-11T04:45:50.559Z,29.47
2022-12-11T04:48:17.104Z,28.68
2022-12-11T04:50:43.591Z,29.40
2022-12-11T04:53:10.073Z,29.07
2022-12-11T04:55:36.593Z,29.05
2022-12-11T04:58:03.190Z,28.99
2022-12-11T05:00:29.870Z,29.21
2022-12-11T05:02:56.486Z,28.88
2022-12-11T05:05:23.026Z,28.93
2022-12-11T05:07:49.652Z,28.80
2022-12-11T05:10:16.244Z,29.31
2022-12-11T05:12:42.733Z,29.15
2022-12-11T05:15:09.980Z,29.25
2022-12-11T05:17:36.763Z,29.16
2022-12-11T05:20:03.721Z,29.27
2022-12-11T05:22:30.925Z,28.75
2022-12-11T05:24:57.491Z,28.30
2022-12-11T05:27:24.422Z,28.39
2022-12-11T05:29:54.806Z,28.04
2022-12-11T05:32:24.347Z,27.74
2022-12-11T05:34:51.625Z,28.17
2022-12-11T05:37:18.193Z,27.56
2022-12-11T05:39:44.760Z,27.97
2022-12-11T05:42:11.296Z,28.82
2022-12-11T05:44:37.842Z,28.50
2022-12-11T05:47:04.570Z,29.38
2022-12-11T05:49:31.332Z,29.38
2022-12-11T05:51:57.894Z,29.10
2022-12-11T05:54:24.493Z,29.33
2022-12-11T05:56:53.781Z,29.74
2022-12-11T05:59:20.465Z,30.89
2022-12-11T06:01:47.258Z,31.11
2022-12-11T06:04:14.009Z,30.11
2022-12-11T06:06:41.354Z,31.21
2022-12-11T06:09:08.197Z,31.08
2022-12-11T06:11:35.867Z,31.44
2022-12-11T06:14:03.308Z,31.32
2022-12-11T06:16:29.899Z,31.23
2022-12-11T06:18:58.427Z,31.27
2022-12-11T06:21:27.319Z,30.99
2022-12-11T06:23:55.833Z,30.83
2022-12-11T06:26:23.050Z,31.82
2022-12-11T06:28:50.764Z,30.87
2022-12-11T06:31:18.538Z,30.81
2022-12-11T06:33:45.347Z,29.90
2022-12-11T06:36:13.613Z,29.39
2022-12-11T06:38:40.438Z,30.54
2022-12-11T06:41:07.684Z,29.41
2022-12-11T06:43:35.391Z,29.19
2022-12-11T06:46:05.757Z,30.25
2022-12-11T06:48:32.521Z,29.91
2022-12-11T06:50:59.086Z,29.86
2022-12-11T06:53:25.624Z,29.36
2022-12-11T06:55:52.142Z,29.25
2022-12-11T06:58:18.652Z,28.25
2022-12-11T07:00:45.279Z,27.45
2022-12-11T07:03:13.765Z,28.10
2022-12-11T07:05:40.305Z,28.17
2022-12-11T07:08:07.548Z,27.41
2022-12-11T07:10:34.192Z,27.24
2022-12-11T07:13:00.929Z,26.41
2022-12-11T07:15:27.486Z,26.37
2022-12-11T07:17:54.070Z,25.95
2022-12-11T07:20:20.742Z,25.64
2022-12-11T07:22:47.279Z,25.24
2022-12-11T07:25:14.133Z,25.43
2022-12-11T07:27:41.744Z,25.54
2022-12-11T07:30:09.137Z,25.23
2022-12-11T07:32:35.914Z,25.32
2022-12-11T07:35:02.835Z,25.13
2022-12-11T07:37:29.393Z,24.81
2022-12-11T07:39:55.906Z,24.45
2022-12-11T07:42:22.540Z,24.13
2022-12-11T07:44:49.160Z,23.91
2022-12-11T07:47:15.890Z,24.33
2022-12-11T07:49:42.424Z,24.75
2022-12-11T07:52:09.026Z,24.48
2022-12-11T07:54:35.702Z,24.43
2022-12-11T07:57:02.173Z,24.40
2022-12-11T07:59:28.684Z,24.95
2022-12-11T08:01:55.232Z,24.77
2022-12-11T08:04:21.838Z,25.92
2022-12-11T08:06:48.378Z,25.18
2022-12-11T08:09:21.071Z,25.42
2022-12-11T08:11:48.875Z,26.54
2022-12-11T08:14:15.377Z,26.33
2022-12-11T08:16:44.285Z,26.12
2022-12-11T08:19:11.699Z,27.43
2022-12-11T08:21:38.919Z,27.36
2022-12-11T08:24:05.707Z,27.54
2022-12-11T08:26:32.973Z,28.72
2022-12-11T08:29:02.038Z,28.80
2022-12-11T08:31:28.795Z,30.05
2022-12-11T08:33:55.665Z,29.74
2022-12-11T08:36:23.220Z,30.38
2022-12-11T08:38:50.588Z,30.62
2022-12-11T08:41:19.697Z,30.58
2022-12-11T08:43:46.817Z,30.48
2022-12-11T08:46:13.539Z,30.07
2022-12-11T08:48:41.820Z,30.17
2022-12-11T08:51:11.222Z,29.78
2022-12-11T08:53:38.954Z,30.72
2022-12-11T08:56:10.649Z,30.91
2022-12-11T08:58:37.349Z,29.90
2022-12-11T09:01:15.002Z,30.10
2022-12-11T09:03:42.405Z,30.34
2022-12-11T09:06:10.673Z,30.89
2022-12-11T09:08:37.857Z,31.55
2022-12-11T09:11:05.406Z,31.63
2022-12-11T09:13:32.117Z,30.35
2022-12-11T09:15:58.799Z,30.84
2022-12-11T09:18:25.516Z,29.98
2022-12-11T09:21:02.578Z,30.85
2022-12-11T09:23:29.204Z,31.21
2022-12-11T09:25:55.801Z,31.66
2022-12-11T09:28:23.134Z,30.84
2022-12-11T09:30:50.093Z,30.18
2022-12-11T09:33:16.689Z,30.45
2022-12-11T09:35:43.371Z,30.34
2022-12-11T09:38:10.477Z,30.15
2022-12-11T09:40:41.937Z,30.64
2022-12-11T09:43:31.361Z,29.24
2022-12-11T09:46:02.182Z,28.84
2022-12-11T09:48:32.499Z,29.44
2022-12-11T09:51:04.280Z,28.87
2022-12-11T09:53:34.953Z,27.96
2022-12-11T09:56:14.950Z,27.82
2022-12-11T09:58:53.931Z,27.57
2022-12-11T10:01:23.746Z,26.82
2022-12-11T10:04:08.899Z,26.82
2022-12-11T10:06:43.456Z,27.07
2022-12-11T10:09:28.721Z,26.74
2022-12-11T10:12:02.827Z,27.99
2022-12-11T10:14:48.117Z,29.67
2022-12-11T10:17:41.762Z,30.81
2022-12-11T10:20:29.208Z,32.91
2022-12-11T10:22:57.473Z,34.18
2022-12-11T10:25:30.105Z,33.04
2022-12-11T10:27:57.598Z,34.89
2022-12-11T10:30:28.427Z,33.67
2022-12-11T10:33:07.053Z,33.85
2022-12-11T10:35:48.131Z,33.52
2022-12-11T10:38:29.498Z,34.15
2022-12-11T10:41:01.784Z,34.91
2022-12-11T10:43:42.573Z,34.60
2022-12-11T10:46:17.833Z,34.90
2022-12-11T10:48:47.423Z,34.03
2022-12-11T10:51:14.432Z,34.11
2022-12-11T10:53:43.325Z,34.13
2022-12-11T10:56:10.098Z,35.13
2022-12-11T10:58:41.315Z,34.29
2022-12-11T11:01:15.426Z,34.27
2022-12-11T11:03:57.202Z,34.77
2022-12-11T11:06:24.774Z,34.05
2022-12-11T11:08:53.510Z,35.38
2022-12-11T11:11:22.979Z,34.69
2022-12-11T11:13:50.038Z,34.98
2022-12-11T11:16:19.661Z,34.34
2022-12-11T11:18:53.156Z,34.02
2022-12-11T11:21:21.893Z,34.28
2022-12-11T11:23:53.203Z,33.97
2022-12-11T11:26:22.901Z,34.59
2022-12-11T11:28:49.991Z,35.05
2022-12-11T11:31:18.312Z,35.53
2022-12-11T11:33:57.501Z,35.92
2022-12-11T11:36:26.828Z,35.19
2022-12-11T11:38:53.444Z,35.91
2022-12-11T11:41:25.555Z,35.39
2022-12-11T11:43:55.323Z,35.81
2022-12-11T11:46:35.061Z,35.34
2022-12-11T11:49:18.944Z,35.13
2022-12-11T11:51:49.115Z,36.84
2022-12-11T11:54:25.688Z,35.82
2022-12-11T11:56:54.896Z,35.73
2022-12-11T11:59:34.539Z,34.15
2022-12-11T12:02:01.059Z,36.14
2022-12-11T12:04:34.058Z,34.95
2022-12-11T12:07:00.653Z,34.90
2022-12-11T12:09:30.332Z,34.15
2022-12-11T12:12:05.842Z,35.73
2022-12-11T12:17:36.215Z,35.37
2022-12-11T12:20:29.662Z,36.10
2022-12-11T12:23:19.217Z,34.46
2022-12-11T12:25:52.345Z,34.54
2022-12-11T12:28:18.990Z,34.95
2022-12-11T12:30:55.408Z,34.31
2022-12-11T12:33:40.908Z,34.33
2022-12-11T12:36:19.712Z,34.36
2022-12-11T12:39:15.635Z,34.07
2022-12-11T12:42:02.640Z,33.34
2022-12-11T12:44:53.978Z,33.86
2022-12-11T12:47:21.727Z,32.72
2022-12-11T12:49:53.833Z,31.79
2022-12-11T12:52:29.255Z,31.57
2022-12-11T12:55:16.605Z,31.88
2022-12-11T12:58:03.391Z,30.58
2022-12-11T13:00:33.195Z,29.94
2022-12-11T13:03:02.896Z,30.51
2022-12-11T13:05:34.554Z,29.18
2022-12-11T13:08:03.308Z,29.91
2022-12-11T13:10:32.166Z,28.63
2022-12-11T13:12:59.166Z,27.67
2022-12-11T13:15:29.386Z,25.85
2022-12-11T13:17:56.324Z,25.32
2022-12-11T13:20:25.128Z,24.77
2022-12-11T13:23:07.731Z,25.36
2022-12-11T13:25:46.914Z,27.86
2022-12-11T13:28:24.713Z,30.17
2022-12-11T13:31:03.173Z,32.27
2022-12-11T13:33:30.669Z,32.61
2022-12-11T13:36:26.400Z,32.72
2022-12-11T13:38:59.439Z,35.01
2022-12-11T13:41:28.019Z,35.48
2022-12-11T13:43:55.632Z,35.36
2022-12-11T13:46:29.476Z,35.35
2022-12-11T13:49:01.081Z,36.53
2022-12-11T13:51:30.387Z,37.59
2022-12-11T13:54:05.000Z,36.96
2022-12-11T13:56:31.815Z,36.34
2022-12-11T13:58:58.340Z,35.32
2022-12-11T14:01:30.772Z,35.67
2022-12-11T14:04:09.263Z,36.34
2022-12-11T14:06:37.094Z,36.69
2022-12-11T14:09:05.492Z,37.10
2022-12-11T14:11:41.071Z,36.30
2022-12-11T14:14:17.913Z,36.66
2022-12-11T14:16:47.252Z,37.17
2022-12-11T14:19:17.196Z,37.23
2022-12-11T14:21:44.252Z,36.82
2022-12-11T14:24:12.434Z,37.03
2022-12-11T14:26:39.177Z,37.22
2022-12-11T14:29:06.872Z,37.28
2022-12-11T14:31:40.788Z,36.23
2022-12-11T14:34:14.848Z,36.56
2022-12-11T14:36:42.102Z,36.26
2022-12-11T14:39:13.954Z,37.72
2022-12-11T14:41:40.910Z,38.44
2022-12-11T14:44:13.432Z,37.96
2022-12-11T14:46:46.774Z,38.84
2022-12-11T14:49:24.973Z,37.97
2022-12-11T14:51:56.199Z,37.06
2022-12-11T14:54:42.958Z,37.50
2022-12-11T14:57:18.527Z,37.13
2022-12-11T14:59:48.144Z,37.75
2022-12-11T15:02:32.510Z,43.13
2022-12-11T15:05:03.384Z,38.31
2022-12-11T15:07:30.003Z,38.54
2022-12-11T15:09:56.580Z,37.16
2022-12-11T15:12:24.134Z,35.94
2022-12-11T15:14:54.220Z,37.10
2022-12-11T15:17:23.010Z,38.49
2022-12-11T15:19:51.808Z,39.01
2022-12-11T15:22:20.127Z,37.33
2022-12-11T15:24:51.214Z,38.48
2022-12-11T15:27:20.918Z,39.44
2022-12-11T15:29:47.600Z,39.32
2022-12-11T15:32:14.212Z,37.93
2022-12-11T15:34:47.248Z,36.82
2022-12-11T15:37:21.658Z,36.97
2022-12-11T15:39:48.344Z,37.53
2022-12-11T15:42:17.748Z,38.28
2022-12-11T15:44:44.735Z,42.12
2022-12-11T15:47:12.268Z,41.63
2022-12-11T15:49:39.035Z,40.68
2022-12-11T15:52:05.735Z,37.85
2022-12-11T15:54:32.257Z,39.59
2022-12-11T15:57:03.361Z,37.77
2022-12-11T15:59:30.793Z,38.97
2022-12-11T16:01:57.435Z,38.51
2022-12-11T16:04:24.132Z,51.56
2022-12-11T16:06:51.112Z,40.08
2022-12-11T16:09:17.755Z,39.61
2022-12-11T16:11:44.392Z,40.60
2022-12-11T16:14:11.199Z,41.33
2022-12-11T16:16:38.057Z,39.33
2022-12-11T16:19:04.772Z,38.96
2022-12-11T16:21:31.347Z,40.09
2022-12-11T16:23:58.165Z,39.34
2022-12-11T16:26:24.708Z,38.81
2022-12-11T16:28:51.331Z,39.10
2022-12-11T16:31:18.157Z,41.10
2022-12-11T16:33:44.858Z,39.48
2022-12-11T16:36:18.951Z,40.85
2022-12-11T16:38:53.551Z,41.33
2022-12-11T16:41:20.895Z,40.55
2022-12-11T16:43:47.554Z,40.25
2022-12-11T16:46:17.786Z,39.04
2022-12-11T16:48:45.253Z,37.12
2022-12-11T16:51:11.863Z,38.86
2022-12-11T16:53:38.408Z,48.58
2022-12-11T16:56:05.594Z,40.69
2022-12-11T16:58:32.401Z,41.02
2022-12-11T17:01:02.247Z,39.21
2022-12-11T17:03:30.288Z,38.88
2022-12-11T17:05:57.723Z,39.11
2022-12-11T17:08:25.611Z,39.22
2022-12-11T17:10:52.515Z,40.68
2022-12-11T17:13:19.201Z,39.14
2022-12-11T17:15:45.839Z,36.57
2022-12-11T17:18:12.489Z,40.46
2022-12-11T17:20:43.196Z,40.49
2022-12-11T17:23:11.091Z,39.23
2022-12-11T17:25:41.868Z,38.50
2022-12-11T17:28:08.849Z,38.05
2022-12-11T17:30:39.293Z,38.52
2022-12-11T17:33:05.870Z,39.82
2022-12-11T17:35:32.822Z,38.25
2022-12-11T17:37:59.522Z,38.38
2022-12-11T17:40:26.711Z,38.91
2022-12-11T17:42:53.547Z,38.33
2022-12-11T17:45:20.066Z,40.42
2022-12-11T17:47:46.614Z,41.71
2022-12-11T17:50:13.349Z,39.67
2022-12-11T17:52:44.121Z,40.29
2022-12-11T17:55:11.550Z,43.10
2022-12-11T17:57:38.491Z,39.48
2022-12-11T18:00:05.431Z,38.27
2022-12-11T18:02:34.395Z,38.40
2022-12-11T18:05:01.306Z,39.12
2022-12-11T18:07:27.914Z,43.05
2022-12-11T18:09:54.708Z,41.34
2022-12-11T18:12:21.289Z,39.83
2022-12-11T18:14:48.539Z,40.03
2022-12-11T18:17:15.199Z,39.80
2022-12-11T18:19:46.069Z,38.54
2022-12-11T18:22:13.162Z,39.51
2022-12-11T18:24:39.795Z,39.18
2022-12-11T18:27:10.333Z,40.50
2022-12-11T18:29:37.164Z,41.33
2022-12-11T18:32:04.061Z,39.36
2022-12-11T18:34:30.753Z,37.37
2022-12-11T18:36:57.292Z,36.80
2022-12-11T18:39:23.929Z,37.38
2022-12-11T18:42:23.913Z,38.59
2022-12-11T18:44:37.786Z,37.80
2022-12-11T18:47:04.513Z,36.90
2022-12-11T18:49:31.125Z,36.93
2022-12-11T18:51:57.682Z,37.14
2022-12-11T18:54:24.318Z,37.07
2022-12-11T18:56:50.908Z,38.04
2022-12-11T18:59:17.731Z,38.19
2022-12-11T19:01:44.370Z,36.70
2022-12-11T19:04:11.252Z,35.14
2022-12-11T19:06:37.958Z,35.24
2022-12-11T19:09:06.101Z,36.31
2022-12-11T19:11:33.653Z,34.26
2022-12-11T19:14:00.608Z,34.00
2022-12-11T19:16:29.937Z,36.33
2022-12-11T19:19:00.619Z,37.59
2022-12-11T19:21:27.479Z,38.07
2022-12-11T19:23:54.620Z,36.72
2022-12-11T19:26:23.202Z,36.67
2022-12-11T19:28:50.659Z,35.96
2022-12-11T19:31:19.380Z,37.11
2022-12-11T19:33:46.851Z,38.76
2022-12-11T19:36:16.502Z,37.68
2022-12-11T19:38:44.162Z,38.56
2022-12-11T19:41:13.814Z,37.87
2022-12-11T19:43:40.634Z,37.84
2022-12-11T19:46:08.516Z,38.27
2022-12-11T19:48:38.805Z,39.43
2022-12-11T19:51:06.000Z,38.02
2022-12-11T19:53:33.511Z,38.26
2022-12-11T19:56:00.045Z,32.43
2022-12-11T19:58:26.783Z,26.68
2022-12-11T20:00:53.445Z,25.39
2022-12-11T20:03:20.593Z,23.57
2022-12-11T20:05:47.213Z,22.75
2022-12-11T20:08:43.073Z,22.42
2022-12-11T20:11:05.550Z,25.14
2022-12-11T20:13:32.370Z,25.72
2022-12-11T20:15:59.773Z,24.65
2022-12-11T20:18:26.961Z,24.07
2022-12-11T20:20:53.557Z,27.41
2022-12-11T20:23:20.188Z,27.29
2022-12-11T20:25:46.768Z,27.98
2022-12-11T20:28:13.407Z,28.92
2022-12-11T20:30:40.018Z,27.55
2022-12-11T20:33:06.630Z,27.34
2022-12-11T20:35:33.282Z,28.30
2022-12-11T20:37:59.821Z,28.94
2022-12-11T20:40:26.487Z,28.16
2022-12-11T20:42:53.289Z,29.21
2022-12-11T20:45:20.027Z,28.56
2022-12-11T20:47:47.120Z,29.95
2022-12-11T20:50:13.803Z,32.48
2022-12-11T20:52:40.571Z,31.35
2022-12-11T20:55:07.492Z,31.53
2022-12-11T20:57:34.184Z,31.77
2022-12-11T21:00:00.908Z,33.07
2022-12-11T21:02:30.827Z,32.40
2022-12-11T21:04:57.886Z,30.57
2022-12-11T21:07:24.570Z,30.88
2022-12-11T21:09:51.171Z,32.18
2022-12-11T21:12:17.803Z,32.41
2022-12-11T21:14:44.418Z,32.02
2022-12-11T21:17:11.053Z,32.40
2022-12-11T21:19:37.683Z,32.58
2022-12-11T21:22:04.501Z,32.10
2022-12-11T21:24:31.608Z,31.39
2022-12-11T21:26:59.095Z,33.03
2022-12-11T21:29:26.885Z,31.44
2022-12-11T21:31:53.688Z,31.59
2022-12-11T21:34:25.249Z,33.38
2022-12-11T21:36:56.584Z,32.53
2022-12-11T21:39:24.292Z,33.06
2022-12-11T21:41:51.000Z,32.64
2022-12-11T21:47:04.307Z,32.77
2022-12-11T21:49:31.053Z,32.76
2022-12-11T21:51:57.727Z,32.74
2022-12-11T21:54:24.420Z,32.33
2022-12-11T21:56:51.009Z,32.64
2022-12-11T21:59:17.546Z,31.73
2022-12-11T22:01:46.154Z,32.07
2022-12-11T22:04:13.522Z,31.36
2022-12-11T22:06:42.084Z,31.77
2022-12-11T22:09:09.202Z,31.35
2022-12-11T22:11:35.846Z,30.43
2022-12-11T22:14:02.896Z,30.59
2022-12-11T22:16:29.583Z,29.67
2022-12-11T22:18:56.362Z,30.90
2022-12-11T22:21:22.952Z,30.58
2022-12-11T22:23:49.862Z,31.06
2022-12-11T22:26:20.880Z,31.29
2022-12-11T22:28:48.383Z,31.68
2022-12-11T22:31:16.845Z,31.96
2022-12-11T22:33:45.001Z,32.45
2022-12-11T22:36:11.965Z,32.33
2022-12-11T22:38:39.493Z,32.26
2022-12-11T22:41:10.153Z,31.82
2022-12-11T22:43:36.895Z,31.20
2022-12-11T22:46:03.478Z,31.36
2022-12-11T22:48:30.078Z,32.07
2022-12-11T22:50:56.744Z,31.94
2022-12-11T22:53:23.514Z,31.53
2022-12-11T22:55:50.062Z,31.74
2022-12-11T22:58:21.619Z,31.76
2022-12-11T23:00:48.673Z,32.09
2022-12-11T23:03:15.326Z,31.87
2022-12-11T23:05:43.388Z,31.11
2022-12-11T23:08:10.301Z,31.55
2022-12-11T23:10:39.412Z,31.41
2022-12-11T23:13:06.367Z,31.54
2022-12-11T23:15:33.205Z,31.54
2022-12-11T23:17:59.927Z,30.74
2022-12-11T23:20:27.170Z,31.37
2022-12-11T23:22:54.371Z,31.54
2022-12-11T23:25:20.879Z,30.81
2022-12-11T23:27:47.548Z,31.26
2022-12-11T23:30:14.249Z,31.12
2022-12-11T23:32:40.973Z,31.43
2022-12-11T23:35:07.721Z,31.01
2022-12-11T23:37:34.561Z,30.83
2022-12-11T23:40:01.262Z,30.42
2022-12-11T23:42:27.826Z,30.32
2022-12-11T23:44:54.380Z,30.80
2022-12-11T23:47:20.929Z,30.80
2022-12-11T23:49:47.484Z,30.38
2022-12-11T23:52:14.029Z,31.21
2022-12-11T23:54:40.613Z,30.57
2022-12-11T23:57:07.173Z,30.26
2022-12-11T23:59:33.777Z,30.65
